Aviation Digital Data Service (ADDS)

Output produced by METARs form (2012 UTC 20 August 2019)
found at http://www.aviationweather.gov/metar/data/
 
METAR text: MSLP 201950Z 16006KT 090V220 9999 SCT020 FEW037CB 31/24 Q1010 A2983 NOSIG RMK CB NW
Conditions at: MSLP (EL SALVADOR INT , SV) observed 1950 UTC 20 August 2019
Temperature: 31.0°C (88°F)
Dewpoint: 24.0°C (75°F) [RH = 66%]
Pressure (altimeter): 29.82 inches Hg (1010.0 mb)
Winds: from the SSE (160 degrees) at 7 MPH (6 knots; 3.1 m/s)
Visibility: 6 or more miles (10+ km)
Ceiling: at least 12,000 feet AGL
Clouds: scattered clouds at 2000 feet AGL
few clouds at 3700 feet AGL
Weather: no significant weather observed at this time

METAR text: MSLP 201850Z VRB05KT 9999 BKN023 FEW037CB 32/24 Q1011 A2985 NOSIG RMK CB NW
Conditions at: MSLP (EL SALVADOR INT , SV) observed 1850 UTC 20 August 2019
Temperature: 32.0°C (90°F)
Dewpoint: 24.0°C (75°F) [RH = 63%]
Pressure (altimeter): 29.85 inches Hg (1011.0 mb)
Winds: variable direction winds at 6 MPH (5 knots; 2.6 m/s)
Visibility: 6 or more miles (10+ km)
Ceiling: 2300 feet AGL
Clouds: broken clouds at 2300 feet AGL
few clouds at 3700 feet AGL
Weather: no significant weather observed at this time

METAR text: MSLP 201750Z 10006KT 040V140 9999 SCT023 FEW033TCU 31/24 Q1012 A2988 TEMPO 21010KT SCT023 FEW033CB RMK TCU NE
Conditions at: MSLP (EL SALVADOR INT , SV) observed 1750 UTC 20 August 2019
Temperature: 31.0°C (88°F)
Dewpoint: 24.0°C (75°F) [RH = 66%]
Pressure (altimeter): 29.88 inches Hg (1012.0 mb)
Winds: from the E (100 degrees) at 7 MPH (6 knots; 3.1 m/s)
Visibility: 6 or more miles (10+ km)
Ceiling: at least 12,000 feet AGL
Clouds: scattered clouds at 2300 feet AGL
few clouds at 3300 feet AGL
Weather: no significant weather observed at this time

METAR text: MSLP 201650Z 11005KT 080V160 9999 SCT020 30/24 Q1012 A2990 TEMPO 21010KT SCT023 FEW033CB
Conditions at: MSLP (EL SALVADOR INT , SV) observed 1650 UTC 20 August 2019
Temperature: 30.0°C (86°F)
Dewpoint: 24.0°C (75°F) [RH = 70%]
Pressure (altimeter): 29.88 inches Hg (1012.0 mb)
Winds: from the ESE (110 degrees) at 6 MPH (5 knots; 2.6 m/s)
Visibility: 6 or more miles (10+ km)
Ceiling: at least 12,000 feet AGL
Clouds: scattered clouds at 2000 feet AGL
Weather: no significant weather observed at this time

METAR text: MSLP 201550Z 11005KT 040V190 9999 FEW014 SCT017 29/25 Q1012A2990 NOSIG
Conditions at: MSLP (EL SALVADOR INT , SV) observed 1550 UTC 20 August 2019
Temperature: 29.0°C (84°F)
Dewpoint: 25.0°C (77°F) [RH = 79%]
Pressure (altimeter): 29.90 inches Hg (1012.6 mb)
Winds: from the ESE (110 degrees) at 6 MPH (5 knots; 2.6 m/s)
Visibility: 6 or more miles (10+ km)
Ceiling: at least 12,000 feet AGL
Clouds: few clouds at 1400 feet AGL
scattered clouds at 1700 feet AGL
Weather: no significant weather observed at this time

METAR text: MSLP 201530Z VRB05KT 9999 FEW014 SCT021 29/25 Q1012 TEMPO BKN020
Conditions at: MSLP (EL SALVADOR INT , SV) observed 1530 UTC 20 August 2019
Temperature: 29.0°C (84°F)
Dewpoint: 25.0°C (77°F) [RH = 79%]
Pressure (altimeter): 29.88 inches Hg (1012.0 mb)
Winds: variable direction winds at 6 MPH (5 knots; 2.6 m/s)
Visibility: 6 or more miles (10+ km)
Ceiling: at least 12,000 feet AGL
Clouds: few clouds at 1400 feet AGL
scattered clouds at 2100 feet AGL
Weather: no significant weather observed at this time

METAR text: MSLP 201450Z 08003KT 050V110 9999 FEW017 27/24 Q1012 A2990 NOSIG
Conditions at: MSLP (EL SALVADOR INT , SV) observed 1450 UTC 20 August 2019
Temperature: 27.0°C (81°F)
Dewpoint: 24.0°C (75°F) [RH = 84%]
Pressure (altimeter): 29.88 inches Hg (1012.0 mb)
Winds: from the E (80 degrees) at 3 MPH (3 knots; 1.5 m/s)
Visibility: 6 or more miles (10+ km)
Ceiling: at least 12,000 feet AGL
Clouds: few clouds at 1700 feet AGL
Weather: no significant weather observed at this time

METAR text: MSLP 201350Z 08003KT 9999 VCSH FEW017 SCT037CB 26/23 Q1012 A2990 NOSIG RMK CB SH S SW
Conditions at: MSLP (EL SALVADOR INT , SV) observed 1350 UTC 20 August 2019
Temperature: 26.0°C (79°F)
Dewpoint: 23.0°C (73°F) [RH = 84%]
Pressure (altimeter): 29.88 inches Hg (1012.0 mb)
Winds: from the E (80 degrees) at 3 MPH (3 knots; 1.5 m/s)
Visibility: 6 or more miles (10+ km)
Ceiling: at least 12,000 feet AGL
Clouds: few clouds at 1700 feet AGL
scattered clouds at 3700 feet AGL
Weather: VCSH  (showers in vicinity)

METAR text: MSLP 201250Z VRB02KT 9999 VCSH FEW017 SCT037CB 25/23 Q1012 A2989 NOSIG RMK CB SH S SW
Conditions at: MSLP (EL SALVADOR INT , SV) observed 1250 UTC 20 August 2019
Temperature: 25.0°C (77°F)
Dewpoint: 23.0°C (73°F) [RH = 89%]
Pressure (altimeter): 29.88 inches Hg (1012.0 mb)
Winds: variable direction winds at 2 MPH (2 knots; 1.0 m/s)
Visibility: 6 or more miles (10+ km)
Ceiling: at least 12,000 feet AGL
Clouds: few clouds at 1700 feet AGL
scattered clouds at 3700 feet AGL
Weather: VCSH  (showers in vicinity)

METAR text: MSLP 201150Z VRB02KT 9999 VCSH FEW017 SCT033CB 24/23 Q1011 A2986 TEMPO 8000 TSRA BKN020 BKN033CB RMK CB SH S SE SW
Conditions at: MSLP (EL SALVADOR INT , SV) observed 1150 UTC 20 August 2019
Temperature: 24.0°C (75°F)
Dewpoint: 23.0°C (73°F) [RH = 94%]
Pressure (altimeter): 29.85 inches Hg (1011.0 mb)
Winds: variable direction winds at 2 MPH (2 knots; 1.0 m/s)
Visibility: 6 or more miles (10+ km)
Ceiling: at least 12,000 feet AGL
Clouds: few clouds at 1700 feet AGL
scattered clouds at 3300 feet AGL
Weather: VCSH  (showers in vicinity)

METAR text: MSLP 201050Z VRB02KT 9999 VCTS FEW020 SCT033CB OVC050 25/23 Q1010 A2984 NOSIG RMK CB S SE E
Conditions at: MSLP (EL SALVADOR INT , SV) observed 1050 UTC 20 August 2019
Temperature: 25.0°C (77°F)
Dewpoint: 23.0°C (73°F) [RH = 89%]
Pressure (altimeter): 29.82 inches Hg (1010.0 mb)
Winds: variable direction winds at 2 MPH (2 knots; 1.0 m/s)
Visibility: 6 or more miles (10+ km)
Ceiling: 5000 feet AGL
Clouds: few clouds at 2000 feet AGL
scattered clouds at 3300 feet AGL
overcast cloud deck at 5000 feet AGL
Weather: VCTS  (thunderstorm in vicinity)

METAR text: MSLP 200950Z 04003KT 360V090 TS FEW020 SCT033CB OVC050 25/23 Q1010 A2983 TEMPO 4000 TSRA BKN020 BKN033CB RMK CB S SE E
Conditions at: MSLP (EL SALVADOR INT , SV) observed 0950 UTC 20 August 2019
Temperature: 25.0°C (77°F)
Dewpoint: 23.0°C (73°F) [RH = 89%]
Pressure (altimeter): 29.82 inches Hg (1010.0 mb)
Winds: from the NE (40 degrees) at 3 MPH (3 knots; 1.5 m/s)
Visibility: missing
Ceiling: 5000 feet AGL
Clouds: few clouds at 2000 feet AGL
scattered clouds at 3300 feet AGL
overcast cloud deck at 5000 feet AGL
Weather: TS  (thunderstorm)

METAR text: MSLP 200924Z 04002KT 9999 TS FEW020 SCT033CB BKN050 24/24 Q1010 A2983 TEMPO 5000 TSRA RMK CB TS SE S
Conditions at: MSLP (EL SALVADOR INT , SV) observed 0924 UTC 20 August 2019
Temperature: 24.0°C (75°F)
Dewpoint: 24.0°C (75°F) [RH = 100%]
Pressure (altimeter): 29.82 inches Hg (1010.0 mb)
Winds: from the NE (40 degrees) at 2 MPH (2 knots; 1.0 m/s)
Visibility: 6 or more miles (10+ km)
Ceiling: 5000 feet AGL
Clouds: few clouds at 2000 feet AGL
scattered clouds at 3300 feet AGL
broken clouds at 5000 feet AGL
Weather: TS  (thunderstorm)

METAR text: MSLP 200850Z VRB02KT 9999 FEW067 FEW040CB 25/23 Q1010 A2984 NOSIG RMK CB S SE E
Conditions at: MSLP (EL SALVADOR INT , SV) observed 0850 UTC 20 August 2019
Temperature: 25.0°C (77°F)
Dewpoint: 23.0°C (73°F) [RH = 89%]
Pressure (altimeter): 29.82 inches Hg (1010.0 mb)
Winds: variable direction winds at 2 MPH (2 knots; 1.0 m/s)
Visibility: 6 or more miles (10+ km)
Ceiling: at least 12,000 feet AGL
Clouds: few clouds at 6700 feet AGL
few clouds at 4000 feet AGL
Weather: no significant weather observed at this time

METAR text: MSLP 200750Z VRB02KT 9999 FEW067 FEW040CB 25/23 Q1010 A2984 NOSIG RMK CB SE E
Conditions at: MSLP (EL SALVADOR INT , SV) observed 0750 UTC 20 August 2019
Temperature: 25.0°C (77°F)
Dewpoint: 23.0°C (73°F) [RH = 89%]
Pressure (altimeter): 29.82 inches Hg (1010.0 mb)
Winds: variable direction winds at 2 MPH (2 knots; 1.0 m/s)
Visibility: 6 or more miles (10+ km)
Ceiling: at least 12,000 feet AGL
Clouds: few clouds at 6700 feet AGL
few clouds at 4000 feet AGL
Weather: no significant weather observed at this time

METAR text: MSLP 200650Z VRB01KT 9999 FEW067 25/23 Q1011 A2986 NOSIG
Conditions at: MSLP (EL SALVADOR INT , SV) observed 0650 UTC 20 August 2019
Temperature: 25.0°C (77°F)
Dewpoint: 23.0°C (73°F) [RH = 89%]
Pressure (altimeter): 29.85 inches Hg (1011.0 mb)
Winds: variable direction winds at 1 MPH (1 knots; 0.5 m/s)
Visibility: 6 or more miles (10+ km)
Ceiling: at least 12,000 feet AGL
Clouds: few clouds at 6700 feet AGL
Weather: no significant weather observed at this time

METAR text: MSLP 200550Z VRB02KT CAVOK 25/23 Q1011 A2988 NOSIG
Conditions at: MSLP (EL SALVADOR INT , SV) observed 0550 UTC 20 August 2019
Temperature: 25.0°C (77°F)
Dewpoint: 23.0°C (73°F) [RH = 89%]
Pressure (altimeter): 29.85 inches Hg (1011.0 mb)
Winds: variable direction winds at 2 MPH (2 knots; 1.0 m/s)
Visibility: 6 or more miles (10+ km)
Ceiling: ceiling and visibility are OK
Clouds: unknown
Weather: no significant weather observed at this time

METAR text: MSLP 200450Z 01004KT 340V040 9999 FEW077 26/24 Q1012 A2989 NOSIG
Conditions at: MSLP (EL SALVADOR INT , SV) observed 0450 UTC 20 August 2019
Temperature: 26.0°C (79°F)
Dewpoint: 24.0°C (75°F) [RH = 89%]
Pressure (altimeter): 29.88 inches Hg (1012.0 mb)
Winds: from the N (10 degrees) at 5 MPH (4 knots; 2.1 m/s)
Visibility: 6 or more miles (10+ km)
Ceiling: at least 12,000 feet AGL
Clouds: few clouds at 7700 feet AGL
Weather: no significant weather observed at this time

METAR text: MSLP 200350Z 03002KT CAVOK 26/24 Q1012 A2989 NOSIG
Conditions at: MSLP (EL SALVADOR INT , SV) observed 0350 UTC 20 August 2019
Temperature: 26.0°C (79°F)
Dewpoint: 24.0°C (75°F) [RH = 89%]
Pressure (altimeter): 29.88 inches Hg (1012.0 mb)
Winds: from the NNE (30 degrees) at 2 MPH (2 knots; 1.0 m/s)
Visibility: 6 or more miles (10+ km)
Ceiling: ceiling and visibility are OK
Clouds: unknown
Weather: no significant weather observed at this time

METAR text: MSLP 200250Z 07002KT 9999 FEW027 26/25 Q1011 A2987 NOSIG
Conditions at: MSLP (EL SALVADOR INT , SV) observed 0250 UTC 20 August 2019
Temperature: 26.0°C (79°F)
Dewpoint: 25.0°C (77°F) [RH = 94%]
Pressure (altimeter): 29.85 inches Hg (1011.0 mb)
Winds: from the ENE (70 degrees) at 2 MPH (2 knots; 1.0 m/s)
Visibility: 6 or more miles (10+ km)
Ceiling: at least 12,000 feet AGL
Clouds: few clouds at 2700 feet AGL
Weather: no significant weather observed at this time

METAR text: MSLP 200150Z VRB02KT 9999 SCT027 27/24 Q1011 A2987 NOSIG
Conditions at: MSLP (EL SALVADOR INT , SV) observed 0150 UTC 20 August 2019
Temperature: 27.0°C (81°F)
Dewpoint: 24.0°C (75°F) [RH = 84%]
Pressure (altimeter): 29.85 inches Hg (1011.0 mb)
Winds: variable direction winds at 2 MPH (2 knots; 1.0 m/s)
Visibility: 6 or more miles (10+ km)
Ceiling: at least 12,000 feet AGL
Clouds: scattered clouds at 2700 feet AGL
Weather: no significant weather observed at this time

METAR text: MSLP 200050Z 27003KT 9999 FEW027 27/24 Q1010 A2983 NOSIG RMK DSTN CB LTG W
Conditions at: MSLP (EL SALVADOR INT , SV) observed 0050 UTC 20 August 2019
Temperature: 27.0°C (81°F)
Dewpoint: 24.0°C (75°F) [RH = 84%]
Pressure (altimeter): 29.82 inches Hg (1010.0 mb)
Winds: from the W (270 degrees) at 3 MPH (3 knots; 1.5 m/s)
Visibility: 6 or more miles (10+ km)
Ceiling: at least 12,000 feet AGL
Clouds: few clouds at 2700 feet AGL
Weather: no significant weather observed at this time

METAR text: MSLP 192350Z 24002KT 9999 FEW023 27/24 Q1009 A2981 NOSIG RMK DSTN CB TO W N
Conditions at: MSLP (EL SALVADOR INT , SV) observed 2350 UTC 19 August 2019
Temperature: 27.0°C (81°F)
Dewpoint: 24.0°C (75°F) [RH = 84%]
Pressure (altimeter): 29.79 inches Hg (1009.0 mb)
Winds: from the WSW (240 degrees) at 2 MPH (2 knots; 1.0 m/s)
Visibility: 6 or more miles (10+ km)
Ceiling: at least 12,000 feet AGL
Clouds: few clouds at 2300 feet AGL
Weather: no significant weather observed at this time

METAR text: MSLP 192250Z 20003KT 9999 FEW023 FEW033CB 29/24 Q1008 A2979 NOSIG RMK CB TO NE
Conditions at: MSLP (EL SALVADOR INT , SV) observed 2250 UTC 19 August 2019
Temperature: 29.0°C (84°F)
Dewpoint: 24.0°C (75°F) [RH = 74%]
Pressure (altimeter): 29.76 inches Hg (1008.0 mb)
Winds: from the SSW (200 degrees) at 3 MPH (3 knots; 1.5 m/s)
Visibility: 6 or more miles (10+ km)
Ceiling: at least 12,000 feet AGL
Clouds: few clouds at 2300 feet AGL
few clouds at 3300 feet AGL
Weather: no significant weather observed at this time

METAR text: MSLP 192150Z VRB03KT 9999 SCT023 FEW037CB 31/25 Q1008 A2978 RMK CB N NNE
Conditions at: MSLP (EL SALVADOR INT , SV) observed 2150 UTC 19 August 2019
Temperature: 31.0°C (88°F)
Dewpoint: 25.0°C (77°F) [RH = 71%]
Pressure (altimeter): 29.76 inches Hg (1008.0 mb)
Winds: variable direction winds at 3 MPH (3 knots; 1.5 m/s)
Visibility: 6 or more miles (10+ km)
Ceiling: at least 12,000 feet AGL
Clouds: scattered clouds at 2300 feet AGL
few clouds at 3700 feet AGL
Weather: no significant weather observed at this time

METAR text: MSLP 192050Z 18004KT 070V230 9999 SCT023 SCT037CB 31/24 Q1008 A2977 RMK CB WNW N NNE TEMPO 7000 SHRA
Conditions at: MSLP (EL SALVADOR INT , SV) observed 2050 UTC 19 August 2019
Temperature: 31.0°C (88°F)
Dewpoint: 24.0°C (75°F) [RH = 66%]
Pressure (altimeter): 29.76 inches Hg (1008.0 mb)
Winds: from the S (180 degrees) at 5 MPH (4 knots; 2.1 m/s)
Visibility: 6 or more miles (10+ km)
Ceiling: at least 12,000 feet AGL
Clouds: scattered clouds at 2300 feet AGL
scattered clouds at 3700 feet AGL
Weather: no significant weather observed at this time

METAR text: MSLP 191950Z 15004KT 060V230 9999 SCT023 SCT037CB 29/24 Q1009 A2980 RMK CB W NNE NE TEMPO 7000 SHRA
Conditions at: MSLP (EL SALVADOR INT , SV) observed 1950 UTC 19 August 2019
Temperature: 29.0°C (84°F)
Dewpoint: 24.0°C (75°F) [RH = 74%]
Pressure (altimeter): 29.79 inches Hg (1009.0 mb)
Winds: from the SSE (150 degrees) at 5 MPH (4 knots; 2.1 m/s)
Visibility: 6 or more miles (10+ km)
Ceiling: at least 12,000 feet AGL
Clouds: scattered clouds at 2300 feet AGL
scattered clouds at 3700 feet AGL
Weather: no significant weather observed at this time

METAR text: MSLP 191850Z 11003KT 070V170 9999 VCSH BKN023 SCT037CB 29/23 Q1010 A2984 RMK CB SH W CB NNE NE TEMPO 7000 SHRA
Conditions at: MSLP (EL SALVADOR INT , SV) observed 1850 UTC 19 August 2019
Temperature: 29.0°C (84°F)
Dewpoint: 23.0°C (73°F) [RH = 70%]
Pressure (altimeter): 29.82 inches Hg (1010.0 mb)
Winds: from the ESE (110 degrees) at 3 MPH (3 knots; 1.5 m/s)
Visibility: 6 or more miles (10+ km)
Ceiling: 2300 feet AGL
Clouds: broken clouds at 2300 feet AGL
scattered clouds at 3700 feet AGL
Weather: VCSH  (showers in vicinity)

METAR text: MSLP 191750Z 14004KT 080V250 9999 BKN023 FEW037CB 30/24 Q1011 A2987 NOSIG RMK CB S SSW WSW TEMPO 7000 TSRA
Conditions at: MSLP (EL SALVADOR INT , SV) observed 1750 UTC 19 August 2019
Temperature: 30.0°C (86°F)
Dewpoint: 24.0°C (75°F) [RH = 70%]
Pressure (altimeter): 29.85 inches Hg (1011.0 mb)
Winds: from the SE (140 degrees) at 5 MPH (4 knots; 2.1 m/s)
Visibility: 6 or more miles (10+ km)
Ceiling: 2300 feet AGL
Clouds: broken clouds at 2300 feet AGL
few clouds at 3700 feet AGL
Weather: no significant weather observed at this time

METAR text: MSLP 191650Z 17005KT 110V220 9999 SCT023 30/24 Q1012 A2988 NOSIG RMK DSTN CB SSW W
Conditions at: MSLP (EL SALVADOR INT , SV) observed 1650 UTC 19 August 2019
Temperature: 30.0°C (86°F)
Dewpoint: 24.0°C (75°F) [RH = 70%]
Pressure (altimeter): 29.88 inches Hg (1012.0 mb)
Winds: from the S (170 degrees) at 6 MPH (5 knots; 2.6 m/s)
Visibility: 6 or more miles (10+ km)
Ceiling: at least 12,000 feet AGL
Clouds: scattered clouds at 2300 feet AGL
Weather: no significant weather observed at this time

METAR text: MSLP 191550Z COR 16003KT 110V240 9999 FEW017 29/24 Q1011 A2987 NOSIG RMK DSTN CB SW
Conditions at: MSLP (EL SALVADOR INT , SV) observed 1550 UTC 19 August 2019
Temperature: 29.0°C (84°F)
Dewpoint: 24.0°C (75°F) [RH = 74%]
Pressure (altimeter): 29.85 inches Hg (1011.0 mb)
Winds: from the SSE (160 degrees) at 3 MPH (3 knots; 1.5 m/s)
Visibility: 6 or more miles (10+ km)
Ceiling: at least 12,000 feet AGL
Clouds: few clouds at 1700 feet AGL
Weather: no significant weather observed at this time

METAR text: MSLP 191450Z VRB02KT 9999 FEW017 FEW037CB 29/22 Q1011 A2985 NOSIG RMK CB SW
Conditions at: MSLP (EL SALVADOR INT , SV) observed 1450 UTC 19 August 2019
Temperature: 29.0°C (84°F)
Dewpoint: 22.0°C (72°F) [RH = 66%]
Pressure (altimeter): 29.85 inches Hg (1011.0 mb)
Winds: variable direction winds at 2 MPH (2 knots; 1.0 m/s)
Visibility: 6 or more miles (10+ km)
Ceiling: at least 12,000 feet AGL
Clouds: few clouds at 1700 feet AGL
few clouds at 3700 feet AGL
Weather: no significant weather observed at this time

METAR text: MSLP 191350Z 01004KT 330V040 9999 FEW017 FEW037CB 28/24 Q1010 A2985 NOSIG RMK CB SW
Conditions at: MSLP (EL SALVADOR INT , SV) observed 1350 UTC 19 August 2019
Temperature: 28.0°C (82°F)
Dewpoint: 24.0°C (75°F) [RH = 79%]
Pressure (altimeter): 29.82 inches Hg (1010.0 mb)
Winds: from the N (10 degrees) at 5 MPH (4 knots; 2.1 m/s)
Visibility: 6 or more miles (10+ km)
Ceiling: at least 12,000 feet AGL
Clouds: few clouds at 1700 feet AGL
few clouds at 3700 feet AGL
Weather: no significant weather observed at this time

METAR text: MSLP 191346Z 01004KT 9999 FEW017 FEW037CB 28/24 Q1010 NOSIG RMK CB SW
Conditions at: MSLP (EL SALVADOR INT , SV) observed 1346 UTC 19 August 2019
Temperature: 28.0°C (82°F)
Dewpoint: 24.0°C (75°F) [RH = 79%]
Pressure (altimeter): 29.82 inches Hg (1010.0 mb)
Winds: from the N (10 degrees) at 5 MPH (4 knots; 2.1 m/s)
Visibility: 6 or more miles (10+ km)
Ceiling: at least 12,000 feet AGL
Clouds: few clouds at 1700 feet AGL
few clouds at 3700 feet AGL
Weather: no significant weather observed at this time

METAR text: MSLP 191250Z VRB02KT 9999 FEW017 FEW037CB 26/24 Q1010 A2985 NOSIG RMK CB S SW
Conditions at: MSLP (EL SALVADOR INT , SV) observed 1250 UTC 19 August 2019
Temperature: 26.0°C (79°F)
Dewpoint: 24.0°C (75°F) [RH = 89%]
Pressure (altimeter): 29.82 inches Hg (1010.0 mb)
Winds: variable direction winds at 2 MPH (2 knots; 1.0 m/s)
Visibility: 6 or more miles (10+ km)
Ceiling: at least 12,000 feet AGL
Clouds: few clouds at 1700 feet AGL
few clouds at 3700 feet AGL
Weather: no significant weather observed at this time

METAR text: MSLP 191248Z VRB02KT 9999 FEW17 FEW037CB 26/24 Q1010 NOSIG
Conditions at: MSLP (EL SALVADOR INT , SV) observed 1248 UTC 19 August 2019
Temperature: 26.0°C (79°F)
Dewpoint: 24.0°C (75°F) [RH = 89%]
Pressure (altimeter): 29.82 inches Hg (1010.0 mb)
Winds: variable direction winds at 2 MPH (2 knots; 1.0 m/s)
Visibility: 6 or more miles (10+ km)
Ceiling: at least 12,000 feet AGL
Clouds: few clouds at 3700 feet AGL
Weather: no significant weather observed at this time

METAR text: MSLP 191150Z 06002KT 9999 FEW020 FEW037CB SCT043 BKN077 24/23 Q1011 A2985 RMK CB S SW
Conditions at: MSLP (EL SALVADOR INT , SV) observed 1150 UTC 19 August 2019
Temperature: 24.0°C (75°F)
Dewpoint: 23.0°C (73°F) [RH = 94%]
Pressure (altimeter): 29.85 inches Hg (1011.0 mb)
Winds: from the ENE (60 degrees) at 2 MPH (2 knots; 1.0 m/s)
Visibility: 6 or more miles (10+ km)
Ceiling: 7700 feet AGL
Clouds: few clouds at 2000 feet AGL
few clouds at 3700 feet AGL
scattered clouds at 4300 feet AGL
broken clouds at 7700 feet AGL
Weather: no significant weather observed at this time

METAR text: MSLP 191050Z 06003KT 9999 FEW037CB FEW054 SCT072 24/24 Q1011 A2985 NOSIG RMK CB S SW
Conditions at: MSLP (EL SALVADOR INT , SV) observed 1050 UTC 19 August 2019
Temperature: 24.0°C (75°F)
Dewpoint: 24.0°C (75°F) [RH = 100%]
Pressure (altimeter): 29.85 inches Hg (1011.0 mb)
Winds: from the ENE (60 degrees) at 3 MPH (3 knots; 1.5 m/s)
Visibility: 6 or more miles (10+ km)
Ceiling: at least 12,000 feet AGL
Clouds: few clouds at 3700 feet AGL
few clouds at 5400 feet AGL
scattered clouds at 7200 feet AGL
Weather: no significant weather observed at this time

METAR text: MSLP 190950Z 06003KT 9999 FEW037CB FEW054 SCT072 24/24 Q1011 A2985 NOSIG RMK CB S SW
Conditions at: MSLP (EL SALVADOR INT , SV) observed 0950 UTC 19 August 2019
Temperature: 24.0°C (75°F)
Dewpoint: 24.0°C (75°F) [RH = 100%]
Pressure (altimeter): 29.85 inches Hg (1011.0 mb)
Winds: from the ENE (60 degrees) at 3 MPH (3 knots; 1.5 m/s)
Visibility: 6 or more miles (10+ km)
Ceiling: at least 12,000 feet AGL
Clouds: few clouds at 3700 feet AGL
few clouds at 5400 feet AGL
scattered clouds at 7200 feet AGL
Weather: no significant weather observed at this time

METAR text: MSLP 190850Z 02003KT 9999 -RA FEW033TCU SCT040 BKN054 25/24 Q1010 A2985 NOSIG RMK TCU N NE
Conditions at: MSLP (EL SALVADOR INT , SV) observed 0850 UTC 19 August 2019
Temperature: 25.0°C (77°F)
Dewpoint: 24.0°C (75°F) [RH = 94%]
Pressure (altimeter): 29.82 inches Hg (1010.0 mb)
Winds: from the NNE (20 degrees) at 3 MPH (3 knots; 1.5 m/s)
Visibility: 6 or more miles (10+ km)
Ceiling: 5400 feet AGL
Clouds: few clouds at 3300 feet AGL
scattered clouds at 4000 feet AGL
broken clouds at 5400 feet AGL
Weather: -RA  (light rain)

Forecast for: MSLP (EL SALVADOR INT , SV)
Text: TAF MSLP 201525Z 2018/2118 21012KT 9999 SCT023 FEW033CB TX32/2018Z TN24/2112Z
Forecast period: 1800 UTC 20 August 2019 to 0000 UTC 21 August 2019
Forecast type: FROM: standard forecast or significant change
Winds: from the SSW (210 degrees) at 14 MPH (12 knots; 6.2 m/s)
Visibility: 6 or more miles 10+ km)
Ceiling: at least 12,000 feet AGL
Clouds: scattered clouds at 2300 feet AGL
few clouds at 3300 feet AGL
Weather: no significant weather forecast for this period
Text: TEMPO 2019/2022 5000 TSRA
Forecast period: 1900 to 2200 UTC 20 August 2019
Forecast type: TEMPORARY: The following changes expected for less than half the time period
Visibility: 3 miles (5 km)
Ceiling: unknown
Clouds: missing
Weather: TSRA  (rain associated with thunderstorm(s))
Text: FM210000 VRB03KT 9999 FEW023 FEW033CB SCT060
Forecast period: 0000 to 1800 UTC 21 August 2019
Forecast type: FROM: standard forecast or significant change
Winds: variable direction winds at 3 MPH (3 knots; 1.5 m/s)
Visibility: 6 or more miles 10+ km)
Ceiling: at least 12,000 feet AGL
Clouds: few clouds at 2300 feet AGL
few clouds at 3300 feet AGL
scattered clouds at 6000 feet AGL
Weather: no significant weather forecast for this period